createdAt,value
2023-02-14T00:03:33.061Z,59.75
2023-02-14T00:08:35.099Z,59.42
2023-02-14T00:13:36.934Z,59.85
2023-02-14T00:18:56.951Z,59.87
2023-02-14T00:23:58.914Z,59.84
2023-02-14T00:29:00.777Z,59.79
2023-02-14T00:34:03.186Z,59.89
2023-02-14T00:39:06.378Z,59.61
2023-02-14T00:44:09.316Z,60.32
2023-02-14T00:49:11.293Z,60.54
2023-02-14T00:54:13.194Z,60.04
2023-02-14T00:59:15.120Z,60.68
2023-02-14T01:04:17.295Z,60.81
2023-02-14T01:09:20.697Z,60.15
2023-02-14T01:14:22.565Z,60.46
2023-02-14T01:19:24.898Z,60.29
2023-02-14T01:24:26.957Z,60.00
2023-02-14T01:29:28.858Z,59.49
2023-02-14T01:34:30.728Z,59.30
2023-02-14T01:39:32.612Z,59.52
2023-02-14T01:44:37.379Z,59.65
2023-02-14T01:49:49.494Z,58.94
2023-02-14T01:55:00.979Z,58.99
2023-02-14T02:00:21.472Z,58.98
2023-02-14T02:05:23.941Z,59.25
2023-02-14T02:10:26.560Z,58.76
2023-02-14T02:15:35.318Z,58.58
2023-02-14T02:21:02.098Z,58.80
2023-02-14T02:26:22.439Z,58.37
2023-02-14T02:32:06.377Z,58.23
2023-02-14T02:37:44.626Z,58.34
2023-02-14T02:43:22.124Z,58.93
2023-02-14T02:48:31.237Z,58.28
2023-02-14T02:54:03.030Z,58.34
2023-02-14T02:59:20.794Z,58.08
2023-02-14T03:04:46.796Z,58.08
2023-02-14T03:09:53.088Z,58.46
2023-02-14T03:15:39.137Z,58.46
2023-02-14T03:20:55.300Z,58.21
2023-02-14T03:26:16.657Z,58.49
2023-02-14T03:31:27.949Z,58.40
2023-02-14T03:36:41.344Z,58.19
2023-02-14T03:41:50.806Z,58.26
2023-02-14T03:47:15.282Z,58.70
2023-02-14T03:52:18.545Z,59.13
2023-02-14T03:57:32.417Z,58.38
2023-02-14T04:02:39.254Z,58.59
2023-02-14T04:07:50.748Z,58.34
2023-02-14T04:12:54.054Z,60.59
2023-02-14T04:18:14.552Z,58.59
2023-02-14T04:23:16.287Z,58.61
2023-02-14T04:28:18.124Z,58.20
2023-02-14T04:33:19.945Z,59.22
2023-02-14T04:38:21.866Z,58.81
2023-02-14T04:43:23.706Z,58.50
2023-02-14T04:48:25.538Z,58.57
2023-02-14T04:53:27.417Z,58.99
2023-02-14T04:58:29.259Z,58.51
2023-02-14T05:03:31.085Z,58.28
2023-02-14T05:08:32.933Z,58.72
2023-02-14T05:13:34.801Z,58.50
2023-02-14T05:18:36.670Z,58.37
2023-02-14T05:23:38.626Z,58.80
2023-02-14T05:28:41.191Z,58.21
2023-02-14T05:33:43.039Z,58.42
2023-02-14T05:38:44.915Z,57.98
2023-02-14T05:43:46.784Z,58.09
2023-02-14T05:48:48.708Z,57.97
2023-02-14T05:53:50.542Z,58.60
2023-02-14T05:58:52.414Z,58.76
2023-02-14T06:03:54.270Z,58.44
2023-02-14T06:08:56.142Z,58.59
2023-02-14T06:13:57.978Z,59.81
2023-02-14T06:18:59.796Z,60.12
2023-02-14T06:24:02.186Z,58.80
2023-02-14T06:29:04.557Z,58.70
2023-02-14T06:34:06.414Z,58.39
2023-02-14T06:39:08.335Z,58.33
2023-02-14T06:44:10.610Z,58.41
2023-02-14T06:49:12.561Z,57.81
2023-02-14T06:54:14.399Z,57.79
2023-02-14T06:59:16.294Z,58.05
2023-02-14T07:04:18.697Z,57.73
2023-02-14T07:09:20.534Z,57.70
2023-02-14T07:14:22.538Z,57.48
2023-02-14T07:19:24.634Z,57.68
2023-02-14T07:24:26.762Z,57.76
2023-02-14T07:29:28.600Z,57.52
2023-02-14T07:34:30.548Z,57.77
2023-02-14T07:39:32.653Z,57.70
2023-02-14T07:44:35.037Z,57.54
2023-02-14T07:49:37.225Z,57.83
2023-02-14T07:54:39.039Z,57.85
2023-02-14T07:59:40.892Z,57.83
2023-02-14T08:04:42.753Z,57.81
2023-02-14T08:09:44.645Z,57.92
2023-02-14T08:14:46.515Z,57.95
2023-02-14T08:19:48.351Z,57.75
2023-02-14T08:24:50.191Z,57.72
2023-02-14T08:29:52.016Z,57.54
2023-02-14T08:34:53.889Z,57.68
2023-02-14T08:39:55.707Z,57.68
2023-02-14T08:44:57.593Z,57.86
2023-02-14T08:49:59.505Z,57.67
2023-02-14T08:55:02.911Z,57.38
2023-02-14T09:00:06.794Z,58.13
2023-02-14T09:05:10.797Z,57.92
2023-02-14T09:10:13.268Z,57.57
2023-02-14T09:15:15.697Z,58.14
2023-02-14T09:20:21.151Z,58.00
2023-02-14T09:25:23.043Z,57.83
2023-02-14T09:30:24.996Z,57.03
2023-02-14T09:35:26.896Z,56.88
2023-02-14T09:40:29.034Z,57.37
2023-02-14T09:45:33.138Z,57.34
2023-02-14T09:50:42.150Z,57.41
2023-02-14T09:55:59.699Z,57.17
2023-02-14T10:01:16.763Z,57.44
2023-02-14T10:06:36.684Z,57.23
2023-02-14T10:11:40.689Z,57.65
2023-02-14T10:16:57.925Z,57.72
2023-02-14T10:22:04.052Z,57.12
2023-02-14T10:27:46.372Z,57.31
2023-02-14T10:33:04.551Z,57.14
2023-02-14T10:38:17.514Z,57.26
2023-02-14T10:43:28.310Z,57.42
2023-02-14T10:48:57.947Z,57.20
2023-02-14T10:54:02.564Z,57.57
2023-02-14T10:59:30.652Z,57.16
2023-02-14T11:04:33.073Z,57.40
2023-02-14T11:09:34.877Z,57.02
2023-02-14T11:14:38.941Z,56.93
2023-02-14T11:19:40.812Z,56.69
2023-02-14T11:24:42.632Z,56.99
2023-02-14T11:29:48.290Z,56.35
2023-02-14T11:35:00.558Z,56.73
2023-02-14T11:40:03.981Z,57.03
2023-02-14T11:45:06.536Z,56.85
2023-02-14T11:50:24.856Z,56.76
2023-02-14T11:55:30.224Z,56.39
2023-02-14T12:00:32.699Z,56.14
2023-02-14T12:05:45.201Z,56.42
2023-02-14T12:11:02.283Z,56.38
2023-02-14T12:16:04.421Z,55.90
2023-02-14T12:21:30.910Z,55.90
2023-02-14T12:26:40.766Z,56.25
2023-02-14T12:31:44.374Z,56.27
2023-02-14T12:37:33.750Z,55.80
2023-02-14T12:43:07.350Z,56.33
2023-02-14T12:48:55.347Z,56.10
2023-02-14T12:54:03.552Z,56.13
2023-02-14T12:59:24.936Z,56.42
2023-02-14T13:04:48.402Z,55.72
2023-02-14T13:09:50.175Z,55.71
2023-02-14T13:15:07.431Z,56.10
2023-02-14T13:20:34.332Z,56.16
2023-02-14T13:25:42.844Z,55.84
2023-02-14T13:30:45.144Z,56.09
2023-02-14T13:35:47.989Z,56.17
2023-02-14T13:40:50.290Z,55.44
2023-02-14T13:45:54.652Z,55.90
2023-02-14T13:51:03.372Z,55.60
2023-02-14T13:56:17.413Z,55.60
2023-02-14T14:01:32.867Z,56.07
2023-02-14T14:07:13.596Z,55.28
2023-02-14T14:12:27.568Z,55.52
2023-02-14T14:17:29.541Z,55.37
2023-02-14T14:22:31.660Z,55.64
2023-02-14T14:27:42.708Z,55.80
2023-02-14T14:32:45.505Z,55.85
2023-02-14T14:37:59.050Z,55.81
2023-02-14T14:43:07.231Z,55.53
2023-02-14T14:48:12.988Z,55.44
2023-02-14T14:53:45.644Z,55.61
2023-02-14T14:58:47.966Z,55.38
2023-02-14T15:03:50.040Z,55.13
2023-02-14T15:08:52.009Z,54.93
2023-02-14T15:13:54.008Z,55.15
2023-02-14T15:19:07.180Z,54.97
2023-02-14T15:24:14.928Z,54.99
2023-02-14T15:29:34.622Z,55.00
2023-02-14T15:34:36.794Z,55.04
2023-02-14T15:39:49.496Z,55.44
2023-02-14T15:45:11.561Z,55.25
2023-02-14T15:50:19.822Z,55.07
2023-02-14T15:55:26.835Z,55.28
2023-02-14T16:00:29.296Z,55.66
2023-02-14T16:05:31.438Z,55.48
2023-02-14T16:10:37.779Z,55.00
2023-02-14T16:15:55.862Z,55.11
2023-02-14T16:21:18.600Z,55.18
2023-02-14T16:26:20.373Z,55.58
2023-02-14T16:31:22.687Z,55.64
2023-02-14T16:36:33.306Z,55.07
2023-02-14T16:41:35.269Z,54.90
2023-02-14T16:46:37.179Z,55.33
2023-02-14T16:51:43.015Z,55.12
2023-02-14T16:57:02.520Z,55.41
2023-02-14T17:02:04.349Z,55.38
2023-02-14T17:07:06.896Z,55.10
2023-02-14T17:12:16.501Z,55.38
2023-02-14T17:17:18.590Z,55.35
2023-02-14T17:22:20.744Z,55.19
2023-02-14T17:27:22.543Z,55.43
2023-02-14T17:32:24.450Z,57.02
2023-02-14T17:37:26.319Z,55.85
2023-02-14T17:42:28.337Z,55.83
2023-02-14T17:47:30.317Z,55.81
2023-02-14T17:52:32.336Z,56.06
2023-02-14T17:57:35.089Z,55.92
2023-02-14T18:02:37.325Z,56.02
2023-02-14T18:07:40.036Z,56.60
2023-02-14T18:12:42.072Z,55.78
2023-02-14T18:17:44.000Z,55.88
2023-02-14T18:22:45.916Z,55.94
2023-02-14T18:27:48.930Z,55.97
2023-02-14T18:32:50.872Z,56.00
2023-02-14T18:37:52.821Z,56.18
2023-02-14T18:42:55.217Z,55.92
2023-02-14T18:47:57.041Z,56.00
2023-02-14T18:52:59.179Z,55.58
2023-02-14T18:58:00.966Z,55.67
2023-02-14T19:03:02.849Z,55.21
2023-02-14T19:08:05.787Z,55.41
2023-02-14T19:13:07.607Z,55.31
2023-02-14T19:18:09.434Z,55.75
2023-02-14T19:23:11.272Z,55.42
2023-02-14T19:28:13.619Z,55.42
2023-02-14T19:33:15.448Z,55.43
2023-02-14T19:38:17.666Z,55.37
2023-02-14T19:43:19.537Z,55.79
2023-02-14T19:48:21.564Z,55.81
2023-02-14T19:53:23.405Z,55.42
2023-02-14T19:58:26.165Z,55.76
2023-02-14T20:03:28.214Z,55.86
2023-02-14T20:08:30.047Z,55.90
2023-02-14T20:13:31.880Z,55.76
2023-02-14T20:18:34.779Z,55.93
2023-02-14T20:23:36.628Z,55.60
2023-02-14T20:28:38.480Z,55.48
2023-02-14T20:33:41.380Z,55.85
2023-02-14T20:38:43.241Z,55.78
2023-02-14T20:43:45.098Z,55.81
2023-02-14T20:48:46.979Z,55.69
2023-02-14T20:53:48.877Z,55.81
2023-02-14T20:58:50.978Z,55.81
2023-02-14T21:03:55.278Z,55.53
2023-02-14T21:08:57.903Z,55.76
2023-02-14T21:14:01.175Z,55.89
2023-02-14T21:19:04.406Z,55.50
2023-02-14T21:24:14.858Z,56.24
2023-02-14T21:29:16.794Z,55.49
2023-02-14T21:34:18.606Z,55.62
2023-02-14T21:39:25.512Z,55.77
2023-02-14T21:44:46.404Z,55.76
2023-02-14T21:50:07.536Z,55.76
2023-02-14T21:55:09.432Z,56.29
2023-02-14T22:00:12.232Z,56.10
2023-02-14T22:05:14.065Z,55.74
2023-02-14T22:10:16.039Z,55.83
2023-02-14T22:15:18.439Z,56.12
2023-02-14T22:20:20.512Z,55.47
2023-02-14T22:25:22.864Z,55.47
2023-02-14T22:30:25.015Z,55.57
2023-02-14T22:35:27.279Z,55.43
2023-02-14T22:40:29.131Z,55.84
2023-02-14T22:45:30.981Z,55.80
2023-02-14T22:50:35.596Z,56.20
2023-02-14T22:55:37.521Z,55.52
2023-02-14T23:00:39.351Z,55.60
2023-02-14T23:05:41.133Z,55.65
2023-02-14T23:10:43.672Z,55.64
2023-02-14T23:16:04.309Z,55.51
2023-02-14T23:21:33.374Z,56.18
2023-02-14T23:26:37.282Z,55.52
2023-02-14T23:31:39.531Z,56.43
2023-02-14T23:36:41.478Z,56.17
2023-02-14T23:41:52.229Z,56.22
2023-02-14T23:46:56.746Z,55.75
2023-02-14T23:51:58.632Z,55.92
2023-02-14T23:57:00.656Z,55.81
